sensor_id;sensor_type;location;lat;lon;timestamp;P1;durP1;ratioP1;P2;durP2;ratioP2
32106;SDS011;18622;51.998;10.440;2023-03-16T03:47:57;6.57;;;1.20;;
32106;SDS011;18622;51.998;10.440;2023-03-16T03:50:25;5.33;;;0.83;;
32106;SDS011;18622;51.998;10.440;2023-03-16T03:52:53;4.17;;;0.80;;
32106;SDS011;18622;51.998;10.440;2023-03-16T03:55:21;7.10;;;1.10;;
32106;SDS011;18622;51.998;10.440;2023-03-16T04:00:28;10.57;;;1.20;;
32106;SDS011;18622;51.998;10.440;2023-03-16T04:02:56;4.63;;;0.90;;
32106;SDS011;18622;51.998;10.440;2023-03-16T04:05:24;4.97;;;0.87;;
32106;SDS011;18622;51.998;10.440;2023-03-16T04:07:57;2.83;;;0.78;;
32106;SDS011;18622;51.998;10.440;2023-03-16T04:12:50;6.83;;;1.07;;
32106;SDS011;18622;51.998;10.440;2023-03-16T04:15:18;5.10;;;1.20;;
32106;SDS011;18622;51.998;10.440;2023-03-16T04:17:47;7.62;;;0.90;;
32106;SDS011;18622;51.998;10.440;2023-03-16T04:20:17;9.80;;;1.10;;
32106;SDS011;18622;51.998;10.440;2023-03-16T04:22:45;11.67;;;3.60;;
32106;SDS011;18622;51.998;10.440;2023-03-16T04:25:14;5.87;;;0.90;;
32106;SDS011;18622;51.998;10.440;2023-03-16T04:27:43;4.92;;;0.82;;
32106;SDS011;18622;51.998;10.440;2023-03-16T04:30:12;8.93;;;1.33;;
32106;SDS011;18622;51.998;10.440;2023-03-16T04:32:40;7.87;;;0.95;;
32106;SDS011;18622;51.998;10.440;2023-03-16T04:35:08;4.37;;;0.87;;
32106;SDS011;18622;51.998;10.440;2023-03-16T04:37:36;8.53;;;1.95;;
32106;SDS011;18622;51.998;10.440;2023-03-16T04:40:04;0.93;;;0.60;;
32106;SDS011;18622;51.998;10.440;2023-03-16T04:42:34;3.12;;;0.80;;
32106;SDS011;18622;51.998;10.440;2023-03-16T04:45:02;2.03;;;0.80;;
32106;SDS011;18622;51.998;10.440;2023-03-16T04:47:30;3.57;;;0.97;;
32106;SDS011;18622;51.998;10.440;2023-03-16T04:50:03;7.25;;;1.00;;
32106;SDS011;18622;51.998;10.440;2023-03-16T04:52:28;7.72;;;1.10;;
32106;SDS011;18622;51.998;10.440;2023-03-16T04:54:56;7.77;;;1.40;;
32106;SDS011;18622;51.998;10.440;2023-03-16T04:57:24;2.67;;;0.73;;
32106;SDS011;18622;51.998;10.440;2023-03-16T04:59:52;3.33;;;0.60;;
32106;SDS011;18622;51.998;10.440;2023-03-16T05:02:19;9.37;;;1.20;;
32106;SDS011;18622;51.998;10.440;2023-03-16T05:04:47;4.80;;;0.60;;
32106;SDS011;18622;51.998;10.440;2023-03-16T05:07:15;6.60;;;0.80;;
32106;SDS011;18622;51.998;10.440;2023-03-16T05:09:43;4.43;;;0.63;;
32106;SDS011;18622;51.998;10.440;2023-03-16T05:12:11;5.40;;;0.80;;
32106;SDS011;18622;51.998;10.440;2023-03-16T05:14:39;9.57;;;1.93;;
32106;SDS011;18622;51.998;10.440;2023-03-16T05:17:06;2.33;;;0.60;;
32106;SDS011;18622;51.998;10.440;2023-03-16T05:19:34;6.53;;;1.10;;
32106;SDS011;18622;51.998;10.440;2023-03-16T05:22:02;3.27;;;0.93;;
32106;SDS011;18622;51.998;10.440;2023-03-16T05:24:31;2.65;;;0.42;;
32106;SDS011;18622;51.998;10.440;2023-03-16T05:26:59;5.40;;;1.10;;
32106;SDS011;18622;51.998;10.440;2023-03-16T05:29:28;3.22;;;1.20;;
32106;SDS011;18622;51.998;10.440;2023-03-16T05:31:59;6.23;;;0.80;;
32106;SDS011;18622;51.998;10.440;2023-03-16T05:34:27;5.40;;;1.10;;
32106;SDS011;18622;51.998;10.440;2023-03-16T05:36:55;4.73;;;0.70;;
32106;SDS011;18622;51.998;10.440;2023-03-16T05:39:23;5.35;;;1.00;;
32106;SDS011;18622;51.998;10.440;2023-03-16T05:41:50;3.40;;;0.83;;
32106;SDS011;18622;51.998;10.440;2023-03-16T05:44:19;5.20;;;0.78;;
32106;SDS011;18622;51.998;10.440;2023-03-16T05:46:47;4.97;;;0.97;;
32106;SDS011;18622;51.998;10.440;2023-03-16T05:49:15;10.50;;;1.20;;
32106;SDS011;18622;51.998;10.440;2023-03-16T05:51:43;5.17;;;0.90;;
32106;SDS011;18622;51.998;10.440;2023-03-16T05:54:11;8.57;;;1.00;;
32106;SDS011;18622;51.998;10.440;2023-03-16T05:56:39;4.27;;;0.77;;
32106;SDS011;18622;51.998;10.440;2023-03-16T05:59:07;5.00;;;0.70;;
32106;SDS011;18622;51.998;10.440;2023-03-16T06:01:34;2.53;;;0.70;;
32106;SDS011;18622;51.998;10.440;2023-03-16T06:04:02;6.10;;;2.10;;
32106;SDS011;18622;51.998;10.440;2023-03-16T06:06:30;4.57;;;1.57;;
32106;SDS011;18622;51.998;10.440;2023-03-16T06:08:58;7.10;;;2.00;;
32106;SDS011;18622;51.998;10.440;2023-03-16T06:11:26;6.27;;;1.10;;
32106;SDS011;18622;51.998;10.440;2023-03-16T06:13:54;9.20;;;0.90;;
32106;SDS011;18622;51.998;10.440;2023-03-16T06:16:22;5.37;;;0.80;;
32106;SDS011;18622;51.998;10.440;2023-03-16T06:18:50;2.67;;;0.60;;
32106;SDS011;18622;51.998;10.440;2023-03-16T06:21:18;6.43;;;0.87;;
32106;SDS011;18622;51.998;10.440;2023-03-16T06:23:46;7.57;;;1.00;;
32106;SDS011;18622;51.998;10.440;2023-03-16T06:26:14;5.43;;;0.83;;
32106;SDS011;18622;51.998;10.440;2023-03-16T06:28:41;2.43;;;0.67;;
32106;SDS011;18622;51.998;10.440;2023-03-16T15:49:52;4.20;;;0.80;;
32106;SDS011;18622;51.998;10.440;2023-03-16T15:52:29;2.73;;;0.97;;
32106;SDS011;18622;51.998;10.440;2023-03-16T15:54:51;2.43;;;1.00;;
32106;SDS011;18622;51.998;10.440;2023-03-16T15:57:21;3.55;;;0.80;;
32106;SDS011;18622;51.998;10.440;2023-03-16T15:59:49;3.25;;;1.22;;
32106;SDS011;18622;51.998;10.440;2023-03-16T16:02:26;4.87;;;1.17;;
32106;SDS011;18622;51.998;10.440;2023-03-16T16:04:53;3.93;;;1.07;;
32106;SDS011;18622;51.998;10.440;2023-03-16T16:07:21;2.17;;;0.70;;
32106;SDS011;18622;51.998;10.440;2023-03-16T16:09:49;5.30;;;1.17;;
32106;SDS011;18622;51.998;10.440;2023-03-16T16:12:17;4.65;;;0.80;;
32106;SDS011;18622;51.998;10.440;2023-03-16T16:14:47;2.83;;;0.80;;
32106;SDS011;18622;51.998;10.440;2023-03-16T16:17:15;3.73;;;1.10;;
32106;SDS011;18622;51.998;10.440;2023-03-16T16:19:45;6.85;;;1.30;;
32106;SDS011;18622;51.998;10.440;2023-03-16T16:22:13;5.57;;;1.00;;
32106;SDS011;18622;51.998;10.440;2023-03-16T16:24:41;3.77;;;1.40;;
32106;SDS011;18622;51.998;10.440;2023-03-16T16:27:10;1.77;;;0.80;;
32106;SDS011;18622;51.998;10.440;2023-03-16T16:29:38;2.33;;;0.80;;
32106;SDS011;18622;51.998;10.440;2023-03-16T16:32:16;2.83;;;1.00;;
32106;SDS011;18622;51.998;10.440;2023-03-16T16:34:42;4.60;;;1.33;;
32106;SDS011;18622;51.998;10.440;2023-03-16T16:37:11;4.33;;;0.77;;
32106;SDS011;18622;51.998;10.440;2023-03-16T16:39:38;3.83;;;1.23;;
32106;SDS011;18622;51.998;10.440;2023-03-16T16:42:08;4.67;;;1.17;;
32106;SDS011;18622;51.998;10.440;2023-03-16T16:44:37;1.77;;;0.80;;
32106;SDS011;18622;51.998;10.440;2023-03-16T16:47:08;3.90;;;0.90;;
32106;SDS011;18622;51.998;10.440;2023-03-16T16:49:35;5.85;;;1.10;;
32106;SDS011;18622;51.998;10.440;2023-03-16T16:52:04;6.95;;;1.10;;
32106;SDS011;18622;51.998;10.440;2023-03-16T16:54:32;6.07;;;1.20;;
32106;SDS011;18622;51.998;10.440;2023-03-16T16:57:01;1.37;;;0.82;;
32106;SDS011;18622;51.998;10.440;2023-03-16T16:59:33;3.57;;;0.90;;
32106;SDS011;18622;51.998;10.440;2023-03-16T17:02:04;4.97;;;1.42;;
32106;SDS011;18622;51.998;10.440;2023-03-16T17:04:33;3.35;;;1.12;;
32106;SDS011;18622;51.998;10.440;2023-03-16T17:07:01;5.75;;;0.80;;
32106;SDS011;18622;51.998;10.440;2023-03-16T17:09:30;3.67;;;1.17;;
32106;SDS011;18622;51.998;10.440;2023-03-16T17:11:58;3.73;;;1.17;;
32106;SDS011;18622;51.998;10.440;2023-03-16T17:14:27;4.23;;;1.40;;
32106;SDS011;18622;51.998;10.440;2023-03-16T17:16:56;3.45;;;0.90;;
32106;SDS011;18622;51.998;10.440;2023-03-16T17:19:26;3.30;;;1.30;;
32106;SDS011;18622;51.998;10.440;2023-03-16T17:21:55;4.30;;;1.40;;
32106;SDS011;18622;51.998;10.440;2023-03-16T17:24:24;2.47;;;1.10;;
32106;SDS011;18622;51.998;10.440;2023-03-16T17:26:54;2.90;;;1.20;;
32106;SDS011;18622;51.998;10.440;2023-03-16T17:29:23;5.00;;;1.10;;
32106;SDS011;18622;51.998;10.440;2023-03-16T17:32:02;10.00;;;4.53;;
32106;SDS011;18622;51.998;10.440;2023-03-16T17:34:27;3.75;;;1.42;;
32106;SDS011;18622;51.998;10.440;2023-03-16T17:36:56;4.05;;;1.20;;
32106;SDS011;18622;51.998;10.440;2023-03-16T17:39:25;3.03;;;1.00;;
32106;SDS011;18622;51.998;10.440;2023-03-16T17:42:03;2.50;;;1.30;;
32106;SDS011;18622;51.998;10.440;2023-03-16T17:44:31;4.80;;;1.70;;
32106;SDS011;18622;51.998;10.440;2023-03-16T17:47:02;3.67;;;1.13;;
32106;SDS011;18622;51.998;10.440;2023-03-16T17:49:31;4.33;;;2.17;;
32106;SDS011;18622;51.998;10.440;2023-03-16T17:51:59;6.47;;;1.80;;
32106;SDS011;18622;51.998;10.440;2023-03-16T17:54:27;2.93;;;1.30;;
32106;SDS011;18622;51.998;10.440;2023-03-16T17:56:55;3.40;;;1.00;;
32106;SDS011;18622;51.998;10.440;2023-03-16T17:59:23;6.30;;;1.50;;
32106;SDS011;18622;51.998;10.440;2023-03-16T18:01:52;6.25;;;2.30;;
32106;SDS011;18622;51.998;10.440;2023-03-16T18:04:21;6.20;;;2.33;;
32106;SDS011;18622;51.998;10.440;2023-03-16T18:06:50;4.72;;;2.00;;
32106;SDS011;18622;51.998;10.440;2023-03-16T18:09:19;4.67;;;2.10;;
32106;SDS011;18622;51.998;10.440;2023-03-16T18:11:47;9.90;;;4.17;;
32106;SDS011;18622;51.998;10.440;2023-03-16T18:14:27;38.38;;;17.27;;
32106;SDS011;18622;51.998;10.440;2023-03-16T18:16:55;19.10;;;8.70;;
32106;SDS011;18622;51.998;10.440;2023-03-16T18:19:24;11.07;;;5.40;;
32106;SDS011;18622;51.998;10.440;2023-03-16T18:21:52;10.97;;;4.00;;
32106;SDS011;18622;51.998;10.440;2023-03-16T18:24:20;4.83;;;2.60;;
32106;SDS011;18622;51.998;10.440;2023-03-16T18:26:49;4.80;;;2.92;;
32106;SDS011;18622;51.998;10.440;2023-03-16T18:29:17;7.10;;;2.47;;
32106;SDS011;18622;51.998;10.440;2023-03-16T18:31:45;8.33;;;4.17;;
32106;SDS011;18622;51.998;10.440;2023-03-16T18:34:20;7.33;;;3.87;;
32106;SDS011;18622;51.998;10.440;2023-03-16T18:36:50;7.77;;;4.43;;
32106;SDS011;18622;51.998;10.440;2023-03-16T18:39:20;7.70;;;3.72;;
32106;SDS011;18622;51.998;10.440;2023-03-16T18:41:48;8.43;;;2.50;;
32106;SDS011;18622;51.998;10.440;2023-03-16T18:44:22;4.93;;;1.77;;
32106;SDS011;18622;51.998;10.440;2023-03-16T18:46:48;6.43;;;3.10;;
32106;SDS011;18622;51.998;10.440;2023-03-16T18:49:21;10.90;;;6.15;;
32106;SDS011;18622;51.998;10.440;2023-03-16T18:51:52;10.33;;;5.77;;
32106;SDS011;18622;51.998;10.440;2023-03-16T18:56:53;8.27;;;4.03;;
32106;SDS011;18622;51.998;10.440;2023-03-16T18:59:23;13.55;;;6.97;;
32106;SDS011;18622;51.998;10.440;2023-03-16T19:01:52;6.70;;;3.85;;
32106;SDS011;18622;51.998;10.440;2023-03-16T19:04:23;4.50;;;2.40;;
32106;SDS011;18622;51.998;10.440;2023-03-16T19:06:54;4.27;;;2.57;;
32106;SDS011;18622;51.998;10.440;2023-03-16T19:09:23;4.78;;;3.25;;
32106;SDS011;18622;51.998;10.440;2023-03-16T19:11:53;5.05;;;2.65;;
32106;SDS011;18622;51.998;10.440;2023-03-16T19:14:27;7.93;;;4.90;;
32106;SDS011;18622;51.998;10.440;2023-03-16T19:16:52;8.45;;;4.83;;
32106;SDS011;18622;51.998;10.440;2023-03-16T19:19:21;8.25;;;5.62;;
32106;SDS011;18622;51.998;10.440;2023-03-16T19:21:55;14.87;;;8.18;;
32106;SDS011;18622;51.998;10.440;2023-03-16T19:24:22;31.23;;;15.30;;
32106;SDS011;18622;51.998;10.440;2023-03-16T19:26:53;32.33;;;16.30;;
32106;SDS011;18622;51.998;10.440;2023-03-16T19:29:22;12.55;;;7.55;;
32106;SDS011;18622;51.998;10.440;2023-03-16T19:31:59;7.33;;;4.10;;
32106;SDS011;18622;51.998;10.440;2023-03-16T19:34:27;9.77;;;5.80;;
32106;SDS011;18622;51.998;10.440;2023-03-16T19:36:55;7.73;;;4.17;;
32106;SDS011;18622;51.998;10.440;2023-03-16T19:39:23;13.77;;;6.97;;
32106;SDS011;18622;51.998;10.440;2023-03-16T19:41:53;14.83;;;7.05;;
32106;SDS011;18622;51.998;10.440;2023-03-16T19:44:31;7.45;;;4.60;;
32106;SDS011;18622;51.998;10.440;2023-03-16T19:46:59;10.57;;;5.43;;
32106;SDS011;18622;51.998;10.440;2023-03-16T19:49:28;7.97;;;4.75;;
32106;SDS011;18622;51.998;10.440;2023-03-16T19:51:56;4.63;;;2.80;;
32106;SDS011;18622;51.998;10.440;2023-03-16T19:54:26;9.17;;;4.60;;
32106;SDS011;18622;51.998;10.440;2023-03-16T19:56:58;9.30;;;6.05;;
32106;SDS011;18622;51.998;10.440;2023-03-16T19:59:30;8.97;;;5.00;;
32106;SDS011;18622;51.998;10.440;2023-03-16T20:01:59;8.05;;;5.12;;
32106;SDS011;18622;51.998;10.440;2023-03-16T20:04:27;6.33;;;3.73;;
32106;SDS011;18622;51.998;10.440;2023-03-16T20:06:56;8.60;;;5.08;;
32106;SDS011;18622;51.998;10.440;2023-03-16T20:09:23;5.40;;;2.53;;
32106;SDS011;18622;51.998;10.440;2023-03-16T20:11:52;6.00;;;2.55;;
32106;SDS011;18622;51.998;10.440;2023-03-16T20:14:22;4.70;;;2.13;;
32106;SDS011;18622;51.998;10.440;2023-03-16T20:16:58;3.27;;;1.60;;
32106;SDS011;18622;51.998;10.440;2023-03-16T20:19:27;5.00;;;3.17;;
32106;SDS011;18622;51.998;10.440;2023-03-16T20:21:55;7.42;;;3.92;;
32106;SDS011;18622;51.998;10.440;2023-03-16T20:24:23;5.37;;;2.90;;
32106;SDS011;18622;51.998;10.440;2023-03-16T20:26:51;7.83;;;3.60;;
32106;SDS011;18622;51.998;10.440;2023-03-16T20:29:29;8.33;;;4.83;;
32106;SDS011;18622;51.998;10.440;2023-03-16T20:31:58;8.93;;;4.10;;
32106;SDS011;18622;51.998;10.440;2023-03-16T20:34:28;10.55;;;3.30;;
32106;SDS011;18622;51.998;10.440;2023-03-16T20:36:57;5.37;;;2.98;;
32106;SDS011;18622;51.998;10.440;2023-03-16T20:39:27;7.25;;;3.12;;
32106;SDS011;18622;51.998;10.440;2023-03-16T20:41:55;4.03;;;2.10;;
32106;SDS011;18622;51.998;10.440;2023-03-16T20:44:23;6.40;;;2.77;;
32106;SDS011;18622;51.998;10.440;2023-03-16T20:46:53;10.08;;;2.33;;
32106;SDS011;18622;51.998;10.440;2023-03-16T20:51:55;3.10;;;1.93;;
32106;SDS011;18622;51.998;10.440;2023-03-16T20:54:23;6.83;;;2.60;;
32106;SDS011;18622;51.998;10.440;2023-03-16T20:56:51;5.00;;;2.15;;
32106;SDS011;18622;51.998;10.440;2023-03-16T20:59:23;3.10;;;2.53;;
32106;SDS011;18622;51.998;10.440;2023-03-16T21:01:52;6.33;;;2.40;;
32106;SDS011;18622;51.998;10.440;2023-03-16T21:04:22;5.83;;;2.20;;
32106;SDS011;18622;51.998;10.440;2023-03-16T21:06:52;5.63;;;1.70;;
32106;SDS011;18622;51.998;10.440;2023-03-16T21:09:21;3.30;;;1.60;;
32106;SDS011;18622;51.998;10.440;2023-03-16T21:11:49;3.50;;;1.53;;
32106;SDS011;18622;51.998;10.440;2023-03-16T21:14:22;5.60;;;1.62;;
32106;SDS011;18622;51.998;10.440;2023-03-16T21:16:48;3.17;;;1.47;;
32106;SDS011;18622;51.998;10.440;2023-03-16T21:19:18;5.37;;;1.62;;
32106;SDS011;18622;51.998;10.440;2023-03-16T21:21:48;3.70;;;1.47;;
32106;SDS011;18622;51.998;10.440;2023-03-16T21:24:16;4.25;;;1.77;;
32106;SDS011;18622;51.998;10.440;2023-03-16T21:26:44;10.53;;;2.70;;
32106;SDS011;18622;51.998;10.440;2023-03-16T21:29:17;3.05;;;1.95;;
32106;SDS011;18622;51.998;10.440;2023-03-16T21:31:48;5.30;;;2.70;;
32106;SDS011;18622;51.998;10.440;2023-03-16T21:34:20;3.97;;;1.40;;
32106;SDS011;18622;51.998;10.440;2023-03-16T21:36:50;11.40;;;2.37;;
32106;SDS011;18622;51.998;10.440;2023-03-16T21:39:19;4.47;;;2.57;;
32106;SDS011;18622;51.998;10.440;2023-03-16T21:41:49;5.17;;;2.67;;
32106;SDS011;18622;51.998;10.440;2023-03-16T21:44:17;8.27;;;6.10;;
